General Aviation Weather

Text Reports

Enter one or more of the following location identifiers separated by a space:

Zip Code, Four-Character ICAO or Three-Character IATA airport codes.

METAR - Aviation Routine Weather Report
KYKN - Yankton, South Dakota
Updated at 8:15 PM GMT on March 02, 2015 (2:15 PM CST):
METAR KYKN 022015Z AUTO 15017KT 10SM OVC080 02/M09 A3017 RMK AO1
TAF - Terminal Area Forecast
KYKN - Yankton, South Dakota
Updated at 8:15 PM GMT on March 02, 2015 (2:15 PM CST):
No TAF is currently available for this location.
Decoded:
No decoded TAF is available.
PIREP - Pilot Weather Report
KYKN - Yankton, South Dakota
Updated at 8:15 PM GMT on March 02, 2015 (2:15 PM CST):
No PIREP is currently available for this location.
AIRMET - Airmens Meteorological Information
KYKN - Yankton, South Dakota
Updated at 8:15 PM GMT on March 02, 2015 (2:15 PM CST):
No AIRMET is currently available for this location.
SIGMET - Significant Meteorological Information
KYKN - Yankton, South Dakota
Updated at 8:15 PM GMT on March 02, 2015 (2:15 PM CST):
No SIGMET is currently available for this location.
NOTAM - Notice to Airmen
KYKN - Yankton, South Dakota
Updated at 8:15 PM GMT on March 02, 2015 (2:15 PM CST):
No NOTAM is currently available for this location.
Forecast Area
KYKN - Yankton, South Dakota
Updated at 8:15 PM GMT on March 02, 2015 (2:15 PM CST):
No NOTAM is currently available for this location.
Aviation Weather Maps